Time;durP1;ratioP1;P1;durP2;ratioP2;P2;SDS_P1;SDS_P2;PMS_P1;PMS_P2;Temp;Humidity;BMP_temperature;BMP_pressure;BME280_temperature;BME280_humidity;BME280_pressure;Samples;Min_cycle;Max_cycle;Signal;HPM_P1;HPM_P2
2022/09/25 00:02:23;;;;;;;0.20;0.00;;;16.60;99.90;;;;;;26078397;22;20190;-70
2022/09/25 00:12:27;;;;;;;0.20;0.10;;;16.60;99.90;;;;;;26077808;22;20194;-69
2022/09/25 00:22:32;;;;;;;0.20;0.10;;;16.60;99.90;;;;;;26077489;22;20202;-70
2022/09/25 00:32:36;;;;;;;0.20;0.00;;;16.70;99.90;;;;;;26077266;22;20195;-70
2022/09/25 00:42:40;;;;;;;0.20;0.10;;;16.70;99.90;;;;;;26050354;22;20183;-70
2022/09/25 00:52:45;;;;;;;0.20;0.00;;;16.80;99.90;;;;;;26075490;22;20206;-70
2022/09/25 01:02:53;;;;;;;0.20;0.00;;;16.90;99.90;;;;;;26076126;22;20179;-69
2022/09/25 01:12:58;;;;;;;0.20;0.10;;;17.00;99.90;;;;;;26049179;22;20255;-70
2022/09/25 01:23:17;;;;;;;0.20;0.10;;;16.70;99.90;;;;;;26075636;22;20190;-71
2022/09/25 01:33:27;;;;;;;0.20;0.10;;;16.70;99.90;;;;;;26075743;22;20195;-71
2022/09/25 01:43:36;;;;;;;0.20;0.10;;;16.70;99.90;;;;;;26075729;22;20156;-71
2022/09/25 01:53:46;;;;;;;0.20;0.10;;;16.60;99.90;;;;;;26075563;22;20199;-69
2022/09/25 02:03:56;;;;;;;0.20;0.00;;;16.70;99.90;;;;;;26079861;22;20175;-69
2022/09/25 02:14:08;;;;;;;0.20;0.10;;;16.60;99.90;;;;;;26056120;22;20207;-71
2022/09/25 02:24:19;;;;;;;0.20;0.00;;;16.50;99.90;;;;;;26082208;22;20301;-71
2022/09/25 02:34:25;;;;;;;0.20;0.10;;;16.50;99.90;;;;;;26083240;22;20227;-70
2022/09/25 02:44:36;;;;;;;0.20;0.00;;;16.30;99.90;;;;;;26056211;22;20164;-70
2022/09/25 02:54:46;;;;;;;0.20;0.10;;;16.50;99.90;;;;;;26054397;22;20199;-71
2022/09/25 03:04:51;;;;;;;0.20;0.00;;;16.50;99.90;;;;;;26080910;22;20188;-71
2022/09/25 03:14:56;;;;;;;0.20;0.10;;;16.70;99.90;;;;;;26054331;22;20180;-71
2022/09/25 03:24:59;;;;;;;0.20;0.10;;;17.00;99.90;;;;;;26080022;22;20200;-71
2022/09/25 03:35:05;;;;;;;0.20;0.10;;;17.20;99.90;;;;;;26080090;22;20164;-69
2022/09/25 03:45:10;;;;;;;0.20;0.10;;;17.10;99.90;;;;;;26079892;22;20225;-70
2022/09/25 03:55:15;;;;;;;0.20;0.00;;;17.20;99.90;;;;;;26079520;22;20184;-70
2022/09/25 04:05:18;;;;;;;0.20;0.10;;;17.10;99.90;;;;;;26079042;22;20184;-69
2022/09/25 04:15:24;;;;;;;0.20;0.10;;;17.10;99.90;;;;;;26078804;22;20160;-70
2022/09/25 04:25:28;;;;;;;0.20;0.10;;;17.10;99.90;;;;;;26050270;22;20180;-69
2022/09/25 04:35:33;;;;;;;0.20;0.00;;;17.30;99.90;;;;;;26050626;22;20164;-69
2022/09/25 04:45:37;;;;;;;0.20;0.10;;;17.20;99.90;;;;;;26077296;22;20203;-69
2022/09/25 04:55:42;;;;;;;0.20;0.00;;;17.20;99.90;;;;;;26050020;22;20211;-68
2022/09/25 05:05:46;;;;;;;0.20;0.10;;;17.30;99.90;;;;;;26076120;22;20218;-70
2022/09/25 05:15:51;;;;;;;0.20;0.00;;;17.50;99.90;;;;;;26075483;22;20155;-70
2022/09/25 05:25:56;;;;;;;0.20;0.07;;;17.40;99.90;;;;;;26075112;22;20179;-70
2022/09/25 05:36:07;;;;;;;0.20;0.10;;;17.10;99.90;;;;;;26074949;22;20163;-70
2022/09/25 05:46:11;;;;;;;0.20;0.00;;;17.10;99.90;;;;;;26074810;22;20176;-71
2022/09/25 05:56:16;;;;;;;0.20;0.10;;;17.00;99.90;;;;;;26074543;22;20188;-70
2022/09/25 06:06:20;;;;;;;0.20;0.00;;;17.00;99.90;;;;;;26046663;22;20192;-71
2022/09/25 06:16:31;;;;;;;0.20;0.00;;;16.90;99.90;;;;;;26073921;22;20175;-70
2022/09/25 06:26:35;;;;;;;0.20;0.10;;;16.90;99.90;;;;;;26047165;22;20645;-69
2022/09/25 06:36:41;;;;;;;0.20;0.10;;;17.00;99.90;;;;;;26073252;22;20202;-70
2022/09/25 06:46:48;;;;;;;0.20;0.10;;;17.10;99.90;;;;;;26075115;22;20912;-71
2022/09/25 06:56:53;;;;;;;0.20;0.10;;;17.40;99.90;;;;;;26052798;22;20239;-70
2022/09/25 07:06:59;;;;;;;0.20;0.00;;;17.60;99.90;;;;;;26080061;22;20184;-71
2022/09/25 07:17:04;;;;;;;0.20;0.00;;;17.80;99.90;;;;;;26053021;22;20238;-70
2022/09/25 07:27:08;;;;;;;0.20;0.00;;;17.80;99.90;;;;;;26053081;22;20208;-70
2022/09/25 07:37:13;;;;;;;0.20;0.00;;;18.00;99.90;;;;;;26078489;22;20737;-70
2022/09/25 07:47:18;;;;;;;0.20;0.00;;;18.20;99.90;;;;;;26077945;22;20222;-69
2022/09/25 07:57:23;;;;;;;0.20;0.10;;;18.50;99.90;;;;;;26076520;22;20208;-70
2022/09/25 08:07:28;;;;;;;0.20;0.10;;;18.60;99.90;;;;;;26023219;22;20234;-70
2022/09/25 08:17:33;;;;;;;0.20;0.00;;;18.70;99.90;;;;;;26076256;22;20862;-70
2022/09/25 08:27:39;;;;;;;0.20;0.00;;;19.10;99.90;;;;;;26076116;22;20199;-69
2022/09/25 08:37:45;;;;;;;0.20;0.10;;;19.50;99.90;;;;;;26074005;22;20187;-70
2022/09/25 08:58:21;;;;;;;0.20;0.10;;;20.20;99.90;;;;;;25943574;23;20184;-69
2022/09/25 09:08:28;;;;;;;0.20;0.00;;;20.60;99.90;;;;;;25943463;23;20208;-69
2022/09/25 09:18:38;;;;;;;0.20;0.00;;;21.40;99.90;;;;;;25943465;23;20207;-69
2022/09/25 09:29:26;;;;;;;0.20;0.00;;;21.90;99.90;;;;;;25942297;23;20239;-72
2022/09/25 09:39:37;;;;;;;0.20;0.00;;;22.00;99.90;;;;;;25923671;22;20413;-70
2022/09/25 09:49:46;;;;;;;0.20;0.00;;;22.10;99.90;;;;;;25942694;23;20254;-70
2022/09/25 09:59:56;;;;;;;0.20;0.00;;;22.30;99.90;;;;;;26066984;22;20211;-69
2022/09/25 10:10:14;;;;;;;0.20;0.00;;;22.80;99.90;;;;;;26070883;22;20188;-69
2022/09/25 10:20:22;;;;;;;0.20;0.00;;;23.20;99.90;;;;;;26044018;22;20239;-69
2022/09/25 10:30:26;;;;;;;0.20;0.00;;;23.40;99.90;;;;;;26076749;22;20230;-69
2022/09/25 10:40:34;;;;;;;0.20;0.00;;;24.10;99.90;;;;;;26076224;22;20191;-69
2022/09/25 10:50:38;;;;;;;0.20;0.10;;;24.40;99.90;;;;;;26075647;22;20226;-69
2022/09/25 11:00:54;;;;;;;0.20;0.00;;;24.80;99.90;;;;;;26075322;22;20184;-69
2022/09/25 11:10:59;;;;;;;0.20;0.00;;;25.20;99.90;;;;;;26021719;22;20187;-69
2022/09/25 11:21:16;;;;;;;0.20;0.00;;;24.50;99.90;;;;;;26071618;22;20156;-70
2022/09/25 11:31:25;;;;;;;0.20;0.10;;;25.80;99.90;;;;;;26046337;22;20210;-69
2022/09/25 11:41:32;;;;;;;0.20;0.00;;;26.20;99.90;;;;;;26046043;22;20188;-69
2022/09/25 11:52:20;;;;;;;0.20;0.00;;;25.80;99.90;;;;;;26071282;22;20242;-70
2022/09/25 12:02:41;;;;;;;0.20;0.10;;;26.50;99.90;;;;;;26072116;22;20168;-69
2022/09/25 12:12:53;;;;;;;0.20;0.00;;;27.20;99.90;;;;;;26073138;22;20188;-69
2022/09/25 12:23:11;;;;;;;0.20;0.10;;;27.30;99.90;;;;;;26073758;22;20167;-70
2022/09/25 12:33:30;;;;;;;0.20;0.10;;;27.20;99.90;;;;;;26046955;22;20176;-70
2022/09/25 12:43:41;;;;;;;2.80;2.70;;;27.40;99.90;;;;;;26073564;22;20210;-70
2022/09/25 12:53:49;;;;;;;0.20;0.00;;;27.50;99.90;;;;;;26070022;22;20219;-69
2022/09/25 13:04:17;;;;;;;0.20;0.00;;;27.50;99.90;;;;;;26044368;22;20172;-69
2022/09/25 13:14:30;;;;;;;0.20;0.10;;;27.80;99.90;;;;;;26070868;22;20262;-69
2022/09/25 13:24:45;;;;;;;0.20;0.10;;;27.80;99.90;;;;;;26069010;22;20219;-69
2022/09/25 13:34:54;;;;;;;0.20;0.00;;;28.40;99.90;;;;;;26068401;22;20191;-69
2022/09/25 13:45:06;;;;;;;0.20;0.00;;;28.70;99.90;;;;;;26018685;22;20168;-69
2022/09/25 13:55:18;;;;;;;0.20;0.00;;;28.80;99.90;;;;;;26071743;22;20195;-70
2022/09/25 14:05:26;;;;;;;0.20;0.00;;;29.30;99.90;;;;;;26052637;22;20226;-71
2022/09/25 14:15:34;;;;;;;0.20;0.00;;;29.20;99.90;;;;;;26053189;22;20229;-71
2022/09/25 14:25:43;;;;;;;0.20;0.00;;;29.60;99.90;;;;;;26077897;22;20168;-70
2022/09/25 14:35:53;;;;;;;0.20;0.00;;;29.40;99.90;;;;;;26074711;22;20182;-70
2022/09/25 14:46:11;;;;;;;0.20;0.00;;;29.20;99.90;;;;;;26076420;22;20158;-69
2022/09/25 14:56:15;;;;;;;0.20;0.00;;;28.80;99.90;;;;;;26048140;22;20192;-69
2022/09/25 15:06:28;;;;;;;0.20;0.00;;;29.50;99.90;;;;;;26071633;22;20176;-69
2022/09/25 15:27:02;;;;;;;0.20;0.00;;;28.90;99.90;;;;;;26070452;22;20224;-69
2022/09/25 15:37:24;;;;;;;0.20;0.10;;;28.70;99.90;;;;;;26016962;22;20191;-68
2022/09/25 15:47:54;;;;;;;0.20;0.00;;;27.40;99.90;;;;;;26041121;22;20191;-69
2022/09/25 15:58:07;;;;;;;0.20;0.00;;;26.10;99.90;;;;;;26040805;22;20287;-70
2022/09/25 16:08:28;;;;;;;0.20;0.00;;;24.80;99.90;;;;;;26039601;22;21055;-69
2022/09/25 16:18:39;;;;;;;0.20;0.00;;;23.70;99.90;;;;;;26066264;22;20160;-69
2022/09/25 16:28:52;;;;;;;0.20;0.00;;;23.50;99.90;;;;;;26065501;22;20179;-68
2022/09/25 16:39:21;;;;;;;0.20;0.00;;;23.10;99.90;;;;;;26040475;22;20259;-69
2022/09/25 16:49:26;;;;;;;0.20;0.00;;;23.20;99.90;;;;;;26067543;22;20187;-70
2022/09/25 16:59:30;;;;;;;0.20;0.00;;;22.70;99.90;;;;;;25937548;23;20271;-69
2022/09/25 17:09:35;;;;;;;0.20;0.00;;;22.50;99.90;;;;;;25938506;23;20270;-69
2022/09/25 17:19:39;;;;;;;0.20;0.00;;;22.30;99.90;;;;;;25941689;23;20164;-69
2022/09/25 17:29:46;;;;;;;0.20;0.00;;;22.10;99.90;;;;;;25942887;23;20264;-70
2022/09/25 17:39:51;;;;;;;0.20;0.00;;;22.00;99.90;;;;;;25943993;23;20233;-69
2022/09/25 17:49:56;;;;;;;0.20;0.00;;;21.90;99.90;;;;;;25942239;23;20200;-70
2022/09/25 18:00:00;;;;;;;0.20;0.03;;;21.90;99.90;;;;;;25940444;23;20216;-74
2022/09/25 18:10:06;;;;;;;0.20;0.00;;;21.90;99.90;;;;;;25937936;23;20283;-70
2022/09/25 18:30:37;;;;;;;0.20;0.05;;;21.70;99.90;;;;;;25940344;23;20223;-68
2022/09/25 18:40:40;;;;;;;0.20;0.00;;;21.40;99.90;;;;;;25941673;22;20177;-69
2022/09/25 18:50:48;;;;;;;0.20;0.00;;;21.30;99.90;;;;;;25955663;22;20203;-69
2022/09/25 19:00:52;;;;;;;0.20;0.00;;;20.80;99.90;;;;;;26075661;22;20156;-70
2022/09/25 19:10:58;;;;;;;0.20;0.00;;;20.80;99.90;;;;;;26075886;22;20184;-69
2022/09/25 19:21:02;;;;;;;0.20;0.00;;;20.90;99.90;;;;;;26075707;22;20164;-69
2022/09/25 19:31:11;;;;;;;0.20;0.00;;;20.70;99.90;;;;;;26076752;22;20286;-69
2022/09/25 19:41:18;;;;;;;0.20;0.00;;;20.30;99.90;;;;;;26076207;22;20157;-69
2022/09/25 19:51:24;;;;;;;0.20;0.10;;;20.20;99.90;;;;;;26067963;22;20219;-69
2022/09/25 20:01:29;;;;;;;0.20;0.00;;;20.10;99.90;;;;;;26072090;22;20159;-69
2022/09/25 20:11:35;;;;;;;0.20;0.10;;;20.00;99.90;;;;;;26071304;22;20192;-71
2022/09/25 20:21:40;;;;;;;0.20;0.00;;;20.00;99.90;;;;;;26072591;22;20153;-69
2022/09/25 20:31:46;;;;;;;0.20;0.00;;;20.10;99.90;;;;;;26071209;22;20184;-70
2022/09/25 20:41:50;;;;;;;0.20;0.10;;;19.90;99.90;;;;;;26070973;22;20168;-69
2022/09/25 20:51:55;;;;;;;0.20;0.10;;;19.50;99.90;;;;;;26069692;22;20215;-69
2022/09/25 21:01:59;;;;;;;0.20;0.00;;;19.60;99.90;;;;;;26063508;22;20160;-68
2022/09/25 21:12:05;;;;;;;0.20;0.00;;;19.60;99.90;;;;;;26066138;22;20196;-68
2022/09/25 21:22:08;;;;;;;0.20;0.10;;;19.20;99.90;;;;;;26074105;22;20176;-68
2022/09/25 21:32:14;;;;;;;0.20;0.10;;;18.90;99.90;;;;;;26074353;22;20176;-69
2022/09/25 21:42:17;;;;;;;0.20;0.00;;;18.90;99.90;;;;;;26073489;22;20164;-68
2022/09/25 21:52:24;;;;;;;0.20;0.00;;;18.40;99.90;;;;;;26072338;22;20251;-69
2022/09/25 22:02:30;;;;;;;0.20;0.10;;;18.20;99.90;;;;;;26046459;22;20444;-68
2022/09/25 22:12:35;;;;;;;0.20;0.00;;;18.00;99.90;;;;;;26072815;22;20179;-68
2022/09/25 22:22:38;;;;;;;0.20;0.00;;;18.10;99.90;;;;;;26080531;22;20164;-68
2022/09/25 22:32:43;;;;;;;0.20;0.00;;;18.10;99.90;;;;;;26081939;22;20200;-68
2022/09/25 22:42:47;;;;;;;0.20;0.10;;;18.30;99.90;;;;;;26054062;22;20202;-67
2022/09/25 22:52:53;;;;;;;0.20;0.00;;;18.30;99.90;;;;;;26053953;22;20239;-68
2022/09/25 23:03:00;;;;;;;0.20;0.00;;;18.30;99.90;;;;;;26053904;22;20164;-67
2022/09/25 23:13:06;;;;;;;0.20;0.10;;;18.00;99.90;;;;;;26080216;22;20200;-68
2022/09/25 23:23:10;;;;;;;0.20;0.10;;;18.00;99.90;;;;;;26080276;22;20208;-69
2022/09/25 23:33:15;;;;;;;0.20;0.10;;;18.10;99.90;;;;;;26052967;22;20230;-69
2022/09/25 23:43:19;;;;;;;0.20;0.10;;;18.10;99.90;;;;;;26079268;22;20247;-69
2022/09/25 23:53:24;;;;;;;0.20;0.10;;;18.00;99.90;;;;;;26050456;22;20287;-67
